Time;durP1;ratioP1;P1;durP2;ratioP2;P2;SDS_P1;SDS_P2;PMS_P1;PMS_P2;Temp;Humidity;BMP_temperature;BMP_pressure;BME280_temperature;BME280_humidity;BME280_pressure;Samples;Min_cycle;Max_cycle;Signal;HPM_P1;HPM_P2
2023/04/21 00:01:12;;;;;;;9.43;8.40;;;;;;;12.42;100.00;98999.28;5132362;28;20051;-74
2023/04/21 00:03:38;;;;;;;8.25;7.45;;;;;;;12.74;100.00;99049.44;5114160;28;20031;-74
2023/04/21 00:06:08;;;;;;;9.27;8.32;;;;;;;12.28;100.00;99006.00;5113603;28;20028;-74
2023/04/21 00:08:39;;;;;;;9.18;7.72;;;;;;;12.50;100.00;99034.59;5136992;27;20160;-74
2023/04/21 00:11:06;;;;;;;10.17;8.47;;;;;;;12.57;100.00;99105.59;5132411;28;20028;-75
2023/04/21 00:13:32;;;;;;;9.05;8.15;;;;;;;12.64;100.00;99146.88;5111818;28;20058;-75
2023/04/21 00:15:57;;;;;;;8.25;7.43;;;;;;;12.49;100.00;99111.97;5093625;28;20062;-75
2023/04/21 00:18:24;;;;;;;9.50;8.10;;;;;;;12.78;100.00;99163.16;5111472;28;20466;-75
2023/04/21 00:20:50;;;;;;;9.32;8.32;;;;;;;12.55;100.00;99155.84;5093417;28;20038;-75
2023/04/21 00:23:15;;;;;;;10.73;8.20;;;;;;;12.51;100.00;99177.28;5096566;28;20024;-74
2023/04/21 00:25:41;;;;;;;9.18;8.25;;;;;;;12.48;100.00;99177.41;5097844;28;20542;-74
2023/04/21 00:28:06;;;;;;;9.80;8.85;;;;;;;12.36;100.00;99179.75;5097656;28;20546;-75
2023/04/21 00:30:32;;;;;;;10.45;9.13;;;;;;;12.30;100.00;99200.44;5097236;28;20038;-75
2023/04/21 00:32:57;;;;;;;11.85;9.90;;;;;;;12.67;100.00;99221.53;5115918;28;20111;-75
2023/04/21 00:35:22;;;;;;;11.90;10.38;;;;;;;12.11;100.00;99173.25;5097264;28;20031;-75
2023/04/21 00:37:49;;;;;;;11.35;10.10;;;;;;;12.11;100.00;99443.34;5116345;28;20027;-75
2023/04/21 00:40:14;;;;;;;13.05;10.38;;;;;;;12.39;100.00;99508.41;5116176;28;20165;-74
2023/04/21 00:42:40;;;;;;;11.05;9.45;;;;;;;12.48;100.00;99506.28;5097882;28;20081;-74
2023/04/21 00:45:06;;;;;;;10.38;9.38;;;;;;;12.56;100.00;99518.69;5115798;28;20032;-75
2023/04/21 00:47:32;;;;;;;10.10;9.00;;;;;;;12.30;100.00;99479.03;5097420;28;20027;-75
2023/04/21 00:49:58;;;;;;;9.85;8.65;;;;;;;12.10;100.00;99466.34;5116552;27;20035;-75
2023/04/21 00:52:25;;;;;;;10.07;8.55;;;;;;;12.36;100.00;99481.31;5097739;28;20027;-75
2023/04/21 00:54:51;;;;;;;10.02;8.60;;;;;;;11.95;100.00;99406.66;5097470;28;20034;-75
2023/04/21 00:57:18;;;;;;;10.15;8.45;;;;;;;12.54;100.00;99515.41;5115326;28;20459;-75
2023/04/21 00:59:43;;;;;;;10.75;8.80;;;;;;;11.99;100.00;99448.94;5097563;28;20552;-74
2023/04/21 01:02:09;;;;;;;8.70;7.90;;;;;;;12.32;100.00;99502.72;5115332;28;20055;-76
2023/04/21 01:04:37;;;;;;;11.35;8.95;;;;;;;12.40;100.00;99500.69;5114885;28;20038;-75
2023/04/21 01:07:04;;;;;;;9.90;8.90;;;;;;;12.27;100.00;99451.13;5115327;28;20478;-75
2023/04/21 01:09:29;;;;;;;12.05;10.60;;;;;;;12.08;100.00;99433.25;5096968;28;20097;-76
2023/04/21 01:12:03;;;;;;;16.88;9.82;;;;;;;12.35;100.00;99499.22;5115803;28;20019;-76
2023/04/21 01:14:29;;;;;;;10.80;9.70;;;;;;;12.16;100.00;99479.63;5115880;28;20024;-74
2023/04/21 01:16:56;;;;;;;11.27;10.18;;;;;;;11.93;100.00;99451.75;5115321;28;20072;-76
2023/04/21 01:19:22;;;;;;;10.95;9.35;;;;;;;11.89;100.00;99452.78;5097442;28;20016;-76
2023/04/21 01:21:48;;;;;;;11.63;9.93;;;;;;;11.93;100.00;99473.84;5115548;28;20107;-75
2023/04/21 01:24:13;;;;;;;11.35;9.65;;;;;;;11.86;100.00;99462.25;5097367;28;20129;-76
2023/04/21 01:26:39;;;;;;;10.27;9.18;;;;;;;11.95;100.00;99497.53;5096739;28;20071;-75
2023/04/21 01:29:04;;;;;;;10.73;9.40;;;;;;;12.25;100.00;99529.38;5096844;28;20035;-76
2023/04/21 01:31:30;;;;;;;10.93;9.43;;;;;;;11.90;100.00;99481.63;5115135;28;20027;-75
2023/04/21 01:33:55;;;;;;;9.80;8.88;;;;;;;12.42;100.00;99554.19;5113739;28;20046;-74
2023/04/21 01:36:21;;;;;;;11.77;9.70;;;;;;;12.37;100.00;99573.91;5096514;28;20169;-75
2023/04/21 01:38:46;;;;;;;10.73;8.98;;;;;;;12.11;100.00;99511.28;5096008;28;20035;-75
2023/04/21 01:41:12;;;;;;;10.82;9.48;;;;;;;12.34;100.00;99576.59;5096269;28;20130;-74
2023/04/21 01:43:37;;;;;;;10.95;8.90;;;;;;;11.77;100.00;99485.53;5114457;28;20151;-74
2023/04/21 01:46:04;;;;;;;11.63;10.07;;;;;;;12.49;100.00;99607.38;5114038;28;20028;-75
2023/04/21 01:48:30;;;;;;;12.02;10.18;;;;;;;11.89;100.00;99539.38;5114596;28;20032;-74
2023/04/21 01:50:55;;;;;;;13.65;10.35;;;;;;;12.41;100.00;99606.88;5095904;28;20477;-74
2023/04/21 01:53:21;;;;;;;11.73;10.15;;;;;;;12.12;100.00;99557.09;5114378;28;20031;-75
2023/04/21 01:55:46;;;;;;;12.07;10.80;;;;;;;12.40;100.00;99612.84;5096141;28;20027;-75
2023/04/21 01:58:11;;;;;;;12.25;10.93;;;;;;;11.92;100.00;99510.41;5114367;28;20820;-75
2023/04/21 02:00:37;;;;;;;14.20;11.48;;;;;;;12.52;100.00;99639.59;5114734;28;20059;-76
2023/04/21 02:03:02;;;;;;;12.55;11.25;;;;;;;12.40;100.00;99622.25;5096956;28;20096;-76
2023/04/21 02:05:28;;;;;;;13.63;11.38;;;;;;;12.42;100.00;99626.38;5114194;28;20035;-76
2023/04/21 02:07:54;;;;;;;12.82;11.30;;;;;;;12.37;100.00;99612.16;5114336;28;20523;-75
2023/04/21 02:10:19;;;;;;;12.27;11.07;;;;;;;12.15;100.00;99602.84;5096360;28;20498;-76
2023/04/21 02:12:45;;;;;;;13.85;11.57;;;;;;;12.04;100.00;99578.69;5114069;28;20067;-76
2023/04/21 02:15:11;;;;;;;15.05;12.20;;;;;;;12.15;100.00;99592.66;5096600;28;20027;-76
2023/04/21 02:17:36;;;;;;;13.85;11.60;;;;;;;11.75;100.00;99562.00;5130156;27;20050;-76
2023/04/21 02:20:03;;;;;;;13.63;11.73;;;;;;;11.63;100.00;99521.72;5095991;28;20514;-76
2023/04/21 02:22:28;;;;;;;11.88;10.77;;;;;;;11.99;100.00;99629.81;5096045;28;20094;-76
2023/04/21 02:24:54;;;;;;;12.32;10.63;;;;;;;12.14;100.00;99631.75;5113628;28;20035;-75
2023/04/21 02:27:19;;;;;;;13.10;11.15;;;;;;;11.63;100.00;99572.63;5147025;27;20046;-76
2023/04/21 02:29:44;;;;;;;13.52;12.07;;;;;;;12.04;100.00;99633.00;5116278;27;20485;-76
2023/04/21 02:32:10;;;;;;;15.15;12.60;;;;;;;11.94;100.00;99761.63;5110709;27;20103;-75
2023/04/21 02:34:35;;;;;;;13.73;11.15;;;;;;;12.01;100.00;99774.97;5112679;27;20063;-75
2023/04/21 02:37:01;;;;;;;12.20;11.00;;;;;;;11.97;100.00;99791.25;5116144;27;20553;-76
2023/04/21 02:39:26;;;;;;;12.25;11.02;;;;;;;11.23;100.00;99687.00;5116336;27;20031;-75
2023/04/21 02:41:52;;;;;;;14.05;11.60;;;;;;;11.80;100.00;99813.97;5134551;27;20063;-75
2023/04/21 02:44:17;;;;;;;13.40;12.00;;;;;;;11.69;100.00;99798.22;5134019;27;20038;-75
2023/04/21 02:46:43;;;;;;;16.08;12.02;;;;;;;11.94;100.00;99840.59;5129958;27;20024;-75
2023/04/21 02:49:09;;;;;;;13.60;11.63;;;;;;;11.67;100.00;99793.19;5127825;27;20042;-76
2023/04/21 02:51:35;;;;;;;14.63;11.55;;;;;;;11.54;100.00;99766.47;5139807;27;20026;-75
2023/04/21 02:54:00;;;;;;;12.27;10.90;;;;;;;11.99;100.00;99855.72;5154919;27;20026;-76
2023/04/21 02:56:25;;;;;;;14.23;10.98;;;;;;;11.80;100.00;99831.78;5154943;27;20034;-75
2023/04/21 02:58:51;;;;;;;13.77;10.45;;;;;;;12.25;100.00;100568.50;5154832;27;20082;-76
2023/04/21 03:01:17;;;;;;;12.63;10.43;;;;;;;11.92;100.00;100571.00;5154358;27;20055;-75
2023/04/21 03:03:44;;;;;;;12.00;10.80;;;;;;;11.88;100.00;100577.06;5136403;27;20039;-76
2023/04/21 03:06:10;;;;;;;25.70;18.33;;;;;;;11.61;100.00;100542.00;5136346;27;20512;-76
2023/04/21 03:08:35;;;;;;;14.40;12.90;;;;;;;12.20;100.00;100617.91;5136399;27;20491;-76
2023/04/21 03:11:01;;;;;;;14.63;12.90;;;;;;;11.71;100.00;100548.59;5151249;27;20577;-75
2023/04/21 03:13:26;;;;;;;16.60;13.82;;;;;;;11.50;100.00;100533.78;5121684;27;20039;-72
2023/04/21 03:15:51;;;;;;;16.85;12.80;;;;;;;11.56;100.00;100589.66;5105398;28;20414;-72
2023/04/21 03:18:17;;;;;;;14.13;12.68;;;;;;;12.00;100.00;100839.25;5094525;28;20028;-72
2023/04/21 03:20:43;;;;;;;16.52;14.25;;;;;;;11.72;100.00;100812.66;5122928;27;20060;-73
2023/04/21 03:23:08;;;;;;;18.67;15.07;;;;;;;11.94;100.00;100895.41;5093714;28;20038;-71
2023/04/21 03:25:34;;;;;;;24.23;19.25;;;;;;;11.92;100.00;100902.25;5123179;27;20477;-71
2023/04/21 03:28:00;;;;;;;20.33;16.63;;;;;;;11.86;100.00;100921.94;5114041;27;20023;-72
2023/04/21 03:30:25;;;;;;;22.48;16.15;;;;;;;12.06;100.00;100948.72;5132022;27;20526;-73
2023/04/21 03:32:51;;;;;;;20.08;16.02;;;;;;;11.69;100.00;100914.56;5132541;27;20027;-73
2023/04/21 03:35:17;;;;;;;22.90;19.40;;;;;;;11.96;100.00;101012.63;5132750;27;20024;-72
2023/04/21 03:37:42;;;;;;;27.17;21.30;;;;;;;11.14;100.00;100909.53;5132042;27;20030;-75
2023/04/21 03:40:08;;;;;;;29.77;21.40;;;;;;;11.87;100.00;101049.31;5132640;27;20031;-71
2023/04/21 03:42:34;;;;;;;84.72;47.63;;;;;;;11.25;100.00;100996.72;5113856;27;20474;-72
2023/04/21 03:45:04;;;;;;;26.65;20.30;;;;;;;11.55;100.00;101071.00;5114019;27;20076;-71
2023/04/21 03:47:30;;;;;;;19.55;15.68;;;;;;;11.49;100.00;101068.56;5114227;28;20052;-73
2023/04/21 03:49:55;;;;;;;20.95;16.42;;;;;;;11.75;100.00;101110.63;5113813;27;20031;-77
2023/04/21 03:52:21;;;;;;;15.82;14.07;;;;;;;11.27;100.00;101070.53;5110044;28;20030;-77
2023/04/21 03:54:46;;;;;;;18.85;14.82;;;;;;;11.19;100.00;101075.72;5094090;28;20474;-76
2023/04/21 03:57:12;;;;;;;21.30;17.30;;;;;;;11.49;100.00;101155.94;5093740;28;20100;-75
2023/04/21 03:59:37;;;;;;;20.25;15.15;;;;;;;11.43;100.00;101168.75;5112058;28;20039;-76
2023/04/21 04:02:03;;;;;;;17.77;15.10;;;;;;;11.53;100.00;101187.34;5112685;28;20040;-75
2023/04/21 04:04:28;;;;;;;57.63;37.65;;;;;;;11.06;100.00;101159.88;5094354;28;20039;-74
2023/04/21 04:06:54;;;;;;;44.25;30.38;;;;;;;10.99;100.00;101165.91;5094057;28;20057;-76
2023/04/21 04:09:21;;;;;;;29.63;23.13;;;;;;;11.29;100.00;101232.56;5113858;28;20031;-76
2023/04/21 04:11:47;;;;;;;20.38;15.50;;;;;;;11.49;100.00;101262.91;5114635;28;20027;-75
2023/04/21 04:14:12;;;;;;;18.13;15.35;;;;;;;11.33;100.00;101266.47;5131919;28;20038;-75
2023/04/21 04:16:38;;;;;;;20.70;18.45;;;;;;;11.76;100.00;101350.97;5114074;28;20035;-76
2023/04/21 04:19:03;;;;;;;33.97;29.80;;;;;;;11.61;100.00;101349.38;5113677;28;20473;-73
2023/04/21 04:21:30;;;;;;;27.02;24.17;;;;;;;11.52;100.00;101354.59;5132516;28;20120;-77
2023/04/21 04:23:55;;;;;;;22.38;19.55;;;;;;;11.78;100.00;101416.34;5114532;28;20027;-82
2023/04/21 04:26:24;;;;;;;24.23;19.20;;;;;;;11.68;100.00;101389.28;5132107;28;20028;-81
2023/04/21 04:28:51;;;;;;;18.13;15.70;;;;;;;11.71;100.00;101407.06;5114280;28;20088;-79
2023/04/21 04:31:16;;;;;;;18.33;14.00;;;;;;;11.59;100.00;101386.75;5132554;28;20019;-84
2023/04/21 04:33:42;;;;;;;15.23;13.18;;;;;;;11.81;100.00;101449.44;5115066;28;20029;-80
2023/04/21 04:36:09;;;;;;;13.45;11.77;;;;;;;11.99;100.00;101477.28;5114087;28;20033;-79
2023/04/21 04:38:36;;;;;;;14.25;11.15;;;;;;;11.77;100.00;101474.94;5132836;28;20034;-77
2023/04/21 04:41:01;;;;;;;15.68;12.15;;;;;;;11.99;100.00;101495.13;5114397;28;20031;-79
2023/04/21 04:43:27;;;;;;;12.73;11.43;;;;;;;11.87;100.00;101492.69;5132390;28;20050;-78
2023/04/21 04:45:52;;;;;;;16.23;11.55;;;;;;;12.87;100.00;101543.50;5114318;28;20034;-76
2023/04/21 04:48:18;;;;;;;16.98;11.68;;;;;;;13.20;100.00;101567.78;5131987;28;20101;-75
2023/04/21 04:50:44;;;;;;;15.25;13.45;;;;;;;12.00;100.00;101485.78;5132454;28;20054;-77
2023/04/21 04:53:09;;;;;;;18.75;10.73;;;;;;;11.87;100.00;101468.91;5113144;28;20429;-78
2023/04/21 04:55:35;;;;;;;12.43;11.10;;;;;;;11.56;100.00;101408.88;5114455;28;20031;-78
2023/04/21 04:58:01;;;;;;;64.68;54.92;;;;;;;12.28;100.00;101478.72;5112892;28;20573;-78
2023/04/21 05:00:27;;;;;;;54.25;45.97;;;;;;;12.09;100.00;101473.78;5132057;28;20047;-77
2023/04/21 05:02:53;;;;;;;43.65;37.72;;;;;;;12.13;100.00;101467.81;5113462;28;20069;-77
2023/04/21 05:05:20;;;;;;;28.73;25.48;;;;;;;12.16;100.00;101441.44;5131172;28;20036;-76
2023/04/21 05:07:46;;;;;;;29.70;26.55;;;;;;;12.41;100.00;101444.53;5131785;28;20028;-77
2023/04/21 05:10:12;;;;;;;30.27;27.15;;;;;;;12.49;100.00;101464.00;5117051;27;20028;-78
2023/04/21 05:12:37;;;;;;;29.27;26.17;;;;;;;12.66;100.00;101476.53;5134961;27;20417;-76
2023/04/21 05:15:05;;;;;;;40.92;35.58;;;;;;;12.83;100.00;101459.31;5117350;27;20035;-77
2023/04/21 05:17:32;;;;;;;37.40;33.33;;;;;;;12.60;100.00;101392.41;5117734;27;20019;-78
2023/04/21 05:19:57;;;;;;;28.98;24.80;;;;;;;12.48;100.00;101354.34;5135636;27;20039;-77
2023/04/21 05:22:22;;;;;;;28.20;23.05;;;;;;;12.45;100.00;101293.16;5118244;27;20068;-78
2023/04/21 05:24:48;;;;;;;23.23;20.15;;;;;;;12.42;100.00;101299.13;5134796;27;20031;-77
2023/04/21 05:27:17;;;;;;;20.33;18.13;;;;;;;12.33;100.00;101268.69;5117653;27;20088;-76
2023/04/21 05:29:42;;;;;;;16.23;13.25;;;;;;;12.81;100.00;101320.69;5116659;27;20473;-77
2023/04/21 05:32:08;;;;;;;13.23;11.82;;;;;;;12.75;100.00;101242.50;5117366;27;20113;-79
2023/04/21 05:34:33;;;;;;;14.52;13.05;;;;;;;12.73;100.00;101231.50;5135317;27;20023;-78
2023/04/21 05:36:59;;;;;;;22.55;15.18;;;;;;;12.62;100.00;101232.50;5116614;27;20045;-77
2023/04/21 05:39:26;;;;;;;23.98;16.50;;;;;;;12.61;100.00;101193.41;5117003;27;20025;-77
2023/04/21 05:41:52;;;;;;;16.27;14.38;;;;;;;12.71;100.00;101192.41;5116834;27;20027;-75
2023/04/21 05:44:17;;;;;;;19.02;12.95;;;;;;;13.07;100.00;101213.06;5116031;27;20084;-76
2023/04/21 05:46:43;;;;;;;12.63;11.07;;;;;;;12.76;100.00;101137.00;5134894;27;20101;-76
2023/04/21 05:49:08;;;;;;;14.98;13.15;;;;;;;13.19;100.00;101177.94;5117165;27;20038;-76
2023/04/21 05:51:34;;;;;;;16.67;14.02;;;;;;;13.32;100.00;101164.03;5134966;27;20027;-76
2023/04/21 05:53:59;;;;;;;13.18;11.77;;;;;;;12.88;100.00;101095.09;5135051;27;20044;-76
2023/04/21 05:56:24;;;;;;;12.82;11.52;;;;;;;12.53;100.00;101037.09;5134856;27;20389;-76
2023/04/21 05:58:50;;;;;;;15.13;13.20;;;;;;;12.62;100.00;101038.59;5134841;27;20058;-76
2023/04/21 06:01:15;;;;;;;12.95;11.65;;;;;;;13.15;100.00;101061.41;5135170;27;20142;-76
2023/04/21 06:03:41;;;;;;;14.75;11.45;;;;;;;13.39;100.00;101098.34;5116844;27;20038;-76
2023/04/21 06:06:08;;;;;;;14.65;11.07;;;;;;;13.49;100.00;101079.41;5134459;27;20557;-77
2023/04/21 06:08:33;;;;;;;11.73;9.60;;;;;;;13.76;100.00;101081.31;5135253;27;20023;-77
2023/04/21 06:10:59;;;;;;;12.52;9.90;;;;;;;14.01;100.00;101056.00;5116304;27;20455;-76
2023/04/21 06:13:26;;;;;;;11.30;9.32;;;;;;;13.78;100.00;101016.50;5116963;27;20035;-77
2023/04/21 06:15:52;;;;;;;11.32;9.13;;;;;;;14.08;100.00;100934.78;5116789;27;20080;-76
2023/04/21 06:18:17;;;;;;;12.63;10.13;;;;;;;14.39;100.00;100931.38;5116564;27;20038;-76
2023/04/21 06:20:52;;;;;;;10.20;8.88;;;;;;;13.76;100.00;100838.50;5133700;27;20023;-76
2023/04/21 06:23:17;;;;;;;11.43;8.60;;;;;;;13.82;100.00;100788.06;5110457;27;20479;-76
2023/04/21 06:25:43;;;;;;;12.48;8.85;;;;;;;14.56;100.00;100742.34;5116559;27;20031;-76
2023/04/21 06:28:08;;;;;;;11.25;8.90;;;;;;;15.13;100.00;100765.19;5116413;27;20047;-77
2023/04/21 06:30:34;;;;;;;11.23;9.27;;;;;;;14.83;100.00;100650.19;5134375;27;20031;-76
2023/04/21 06:32:59;;;;;;;9.07;7.85;;;;;;;14.75;100.00;100629.97;5134755;27;20030;-76
2023/04/21 06:35:25;;;;;;;12.55;11.35;;;;;;;15.18;100.00;100578.88;5116412;27;20038;-76
2023/04/21 06:37:50;;;;;;;11.07;8.25;;;;;;;15.68;100.00;100512.91;5115696;27;20059;-75
2023/04/21 06:40:16;;;;;;;10.63;9.27;;;;;;;14.93;100.00;100439.00;5133550;27;20062;-76
2023/04/21 06:42:41;;;;;;;10.98;9.57;;;;;;;14.58;100.00;100376.34;5133422;27;20098;-76
2023/04/21 06:45:07;;;;;;;11.18;10.10;;;;;;;13.94;100.00;100311.41;5115754;27;20027;-75
2023/04/21 06:47:32;;;;;;;12.68;11.38;;;;;;;14.67;100.00;100315.44;5133314;27;20030;-77
2023/04/21 06:49:58;;;;;;;13.20;11.90;;;;;;;14.91;100.00;100284.63;5133522;27;20031;-76
2023/04/21 06:52:23;;;;;;;14.43;13.13;;;;;;;14.42;100.00;100191.09;5133771;27;20031;-76
2023/04/21 06:54:49;;;;;;;16.45;14.95;;;;;;;14.75;100.00;100223.81;5115873;27;20031;-76
2023/04/21 06:57:16;;;;;;;16.45;14.85;;;;;;;14.30;100.00;100205.19;5133756;27;20035;-76
2023/04/21 06:59:41;;;;;;;16.27;14.63;;;;;;;13.76;100.00;100177.44;5115579;27;20031;-76
2023/04/21 07:02:07;;;;;;;19.42;15.30;;;;;;;14.41;100.00;100174.91;5133593;27;20058;-76
2023/04/21 07:04:32;;;;;;;14.88;13.43;;;;;;;14.65;100.00;100184.13;5133860;27;20032;-76
2023/04/21 07:06:57;;;;;;;16.65;14.43;;;;;;;14.65;100.00;100155.16;5115602;27;20121;-75
2023/04/21 07:09:23;;;;;;;16.58;14.05;;;;;;;14.11;100.00;100081.47;5115264;27;20092;-76
2023/04/21 07:11:48;;;;;;;18.38;14.30;;;;;;;14.56;100.00;100094.13;5115160;27;20420;-76
2023/04/21 07:14:14;;;;;;;14.93;13.43;;;;;;;14.21;100.00;100123.69;5115688;27;20060;-76
2023/04/21 07:16:39;;;;;;;15.80;13.20;;;;;;;14.35;100.00;100077.13;5133367;27;20034;-77
2023/04/21 07:19:04;;;;;;;14.65;13.18;;;;;;;14.24;100.00;100067.28;5133192;27;20469;-76
2023/04/21 07:21:30;;;;;;;16.65;14.88;;;;;;;14.91;100.00;100116.50;5114916;27;20035;-79
2023/04/21 07:23:57;;;;;;;14.85;13.40;;;;;;;13.81;100.00;100081.00;5114674;27;20079;-76
2023/04/21 07:26:23;;;;;;;27.30;24.38;;;;;;;13.76;100.00;100038.63;5133319;27;20035;-77
2023/04/21 07:28:49;;;;;;;17.65;15.85;;;;;;;14.26;100.00;100039.94;5115327;27;20035;-77
2023/04/21 07:31:15;;;;;;;16.02;14.43;;;;;;;14.78;100.00;100098.25;5133270;27;20085;-78
2023/04/21 07:33:40;;;;;;;17.50;15.70;;;;;;;14.59;100.00;100004.44;5132114;27;20047;-77
2023/04/21 07:36:06;;;;;;;17.95;15.70;;;;;;;15.13;100.00;100093.31;5114706;27;20496;-78
2023/04/21 07:38:31;;;;;;;18.00;16.15;;;;;;;14.80;100.00;100028.28;5133144;27;20027;-77
2023/04/21 07:40:57;;;;;;;17.20;15.52;;;;;;;14.54;100.00;99988.44;5133161;27;20455;-78
2023/04/21 07:43:22;;;;;;;17.40;14.30;;;;;;;15.22;100.00;100085.22;5114620;27;20470;-77
2023/04/21 07:45:47;;;;;;;15.20;13.07;;;;;;;14.71;100.00;100075.56;5114794;27;20118;-76
2023/04/21 07:48:13;;;;;;;14.95;13.45;;;;;;;14.68;100.00;100060.31;5132985;27;20130;-77
2023/04/21 07:50:38;;;;;;;16.17;14.57;;;;;;;14.61;100.00;100021.41;5114498;27;20125;-77
2023/04/21 07:53:04;;;;;;;16.60;14.90;;;;;;;15.75;100.00;100077.66;5114687;27;20421;-75
2023/04/21 07:55:29;;;;;;;15.77;14.15;;;;;;;15.23;100.00;99964.75;5111154;28;20059;-78
2023/04/21 07:57:55;;;;;;;13.43;12.02;;;;;;;15.12;100.00;100043.84;5094581;28;20470;-77
2023/04/21 08:00:21;;;;;;;14.70;12.50;;;;;;;15.56;100.00;100036.69;5093659;28;20042;-76
2023/04/21 08:02:46;;;;;;;14.23;12.70;;;;;;;15.70;100.00;100049.69;5112298;28;20081;-79
2023/04/21 08:05:12;;;;;;;11.40;10.20;;;;;;;14.82;100.00;99965.84;5093963;28;20421;-78
2023/04/21 08:07:38;;;;;;;12.70;11.38;;;;;;;15.88;100.00;100012.91;5094168;28;20197;-76
2023/04/21 08:10:05;;;;;;;13.23;11.85;;;;;;;15.10;100.00;100001.25;5093605;28;20063;-78
2023/04/21 08:12:30;;;;;;;14.82;12.38;;;;;;;15.49;100.00;100019.91;5111924;28;20058;-77
2023/04/21 08:14:56;;;;;;;12.60;11.30;;;;;;;15.94;100.00;99963.88;5093873;28;20055;-77
2023/04/21 08:17:21;;;;;;;15.10;12.25;;;;;;;15.87;100.00;99990.72;5111785;28;20036;-76
2023/04/21 08:19:46;;;;;;;15.90;11.88;;;;;;;16.53;100.00;99998.50;5093675;28;20036;-78
2023/04/21 08:22:12;;;;;;;17.20;12.45;;;;;;;16.88;100.00;100003.44;5111071;28;20443;-77
2023/04/21 08:24:37;;;;;;;12.30;11.20;;;;;;;17.78;100.00;99989.03;5112221;28;20027;-77
2023/04/21 08:27:03;;;;;;;11.60;10.40;;;;;;;18.13;100.00;99933.75;5112125;28;20094;-76
2023/04/21 08:29:28;;;;;;;14.35;10.20;;;;;;;18.57;100.00;99916.50;5094041;28;20032;-77
2023/04/21 08:31:53;;;;;;;11.65;9.15;;;;;;;18.22;100.00;99922.94;5093765;28;20024;-79
2023/04/21 08:34:19;;;;;;;11.82;9.15;;;;;;;18.53;100.00;99912.44;5111675;28;20409;-78
2023/04/21 08:36:46;;;;;;;10.30;9.07;;;;;;;16.95;100.00;99808.75;5093715;28;20104;-77
2023/04/21 08:39:12;;;;;;;10.20;9.20;;;;;;;16.89;100.00;99851.03;5112032;28;20054;-78
2023/04/21 08:41:41;;;;;;;9.73;8.73;;;;;;;17.92;100.00;99814.13;5112126;28;20034;-79
2023/04/21 08:44:14;;;;;;;11.18;9.23;;;;;;;18.29;100.00;99804.97;5096196;28;20024;-79
2023/04/21 08:46:40;;;;;;;10.80;9.57;;;;;;;18.63;100.00;99856.03;5114812;28;20035;-79
2023/04/21 08:49:08;;;;;;;17.20;11.52;;;;;;;18.79;100.00;99790.59;5115870;28;20104;-79
2023/04/21 08:51:34;;;;;;;8.70;7.45;;;;;;;18.46;100.00;99779.84;5097350;28;20096;-80
2023/04/21 08:53:59;;;;;;;9.30;7.97;;;;;;;18.45;100.00;99829.69;5115590;28;20035;-80
2023/04/21 08:56:25;;;;;;;10.20;8.48;;;;;;;17.50;100.00;99758.41;5097962;28;20039;-77
2023/04/21 08:58:51;;;;;;;9.88;8.88;;;;;;;18.01;100.00;99737.22;5114726;28;20061;-77
2023/04/21 09:01:16;;;;;;;10.10;9.05;;;;;;;18.58;100.00;99776.50;5093851;28;20105;-77
2023/04/21 09:03:42;;;;;;;12.90;8.73;;;;;;;18.35;100.00;99812.31;5110786;28;20119;-76
2023/04/21 09:06:08;;;;;;;9.07;8.18;;;;;;;17.88;100.00;99815.25;5093891;28;20055;-77
2023/04/21 09:08:38;;;;;;;9.15;8.25;;;;;;;18.58;100.00;99753.31;5110487;28;20057;-77
2023/04/21 09:11:04;;;;;;;8.90;7.53;;;;;;;19.11;100.00;99823.75;5128183;27;20122;-76
2023/04/21 09:13:36;;;;;;;9.43;8.43;;;;;;;18.27;100.00;99804.25;5093569;28;20068;-82
2023/04/21 09:16:04;;;;;;;9.00;8.10;;;;;;;18.80;100.00;99763.88;5108501;28;20070;-77
2023/04/21 09:18:35;;;;;;;8.52;7.72;;;;;;;18.99;100.00;99813.28;4751218;27;10000209;-78
2023/04/21 09:21:17;;;;;;;9.50;7.50;;;;;;;20.26;100.00;99814.97;5110905;28;20500;-77
2023/04/21 09:23:51;;;;;;;11.73;7.70;;;;;;;19.94;100.00;99807.78;5112175;28;20067;-77
2023/04/21 09:26:20;;;;;;;8.65;7.30;;;;;;;19.96;100.00;99800.75;5112447;28;20092;-78
2023/04/21 09:28:48;;;;;;;8.45;7.55;;;;;;;20.31;100.00;99799.97;5112247;28;20039;-77
2023/04/21 09:31:19;;;;;;;12.48;9.00;;;;;;;20.25;100.00;99784.91;5113191;28;20024;-81
2023/04/21 09:33:51;;;;;;;7.43;6.70;;;;;;;20.90;100.00;99815.53;5110329;27;20027;-76
2023/04/21 09:36:22;;;;;;;7.65;6.32;;;;;;;19.76;100.00;99717.81;5119356;27;20039;-79
2023/04/21 09:38:56;;;;;;;7.57;6.25;;;;;;;20.68;100.00;99793.00;5121941;27;20040;-77
2023/04/21 09:41:22;;;;;;;12.10;7.03;;;;;;;21.44;100.00;99729.50;5141016;27;20035;-74
2023/04/21 09:43:48;;;;;;;9.82;6.88;;;;;;;20.90;100.00;99772.41;5114303;28;20027;-74
2023/04/21 09:46:17;;;;;;;30.05;8.50;;;;;;;19.48;100.00;99782.56;5112620;28;20032;-73
2023/04/21 09:48:43;;;;;;;7.75;5.72;;;;;;;19.27;100.00;99745.31;5122002;27;20035;-75
2023/04/21 09:51:11;;;;;;;7.03;6.07;;;;;;;20.10;100.00;99810.97;5096130;27;20062;-75
2023/04/21 09:53:39;;;;;;;8.45;5.68;;;;;;;20.65;100.00;99806.97;5092981;28;20211;-76
2023/04/21 09:56:09;;;;;;;8.75;5.25;;;;;;;19.45;100.00;99714.91;5092021;28;20483;-76
2023/04/21 09:58:40;;;;;;;7.75;5.97;;;;;;;20.75;100.00;99783.88;5126736;27;20024;-75
2023/04/21 10:01:07;;;;;;;6.78;5.45;;;;;;;20.63;100.00;99845.03;5092254;28;20054;-75
2023/04/21 10:03:37;;;;;;;6.70;5.30;;;;;;;20.15;100.00;99847.59;5093498;28;20040;-76
2023/04/21 10:06:03;;;;;;;5.88;5.28;;;;;;;19.57;100.00;99838.66;5092483;28;20027;-76
2023/04/21 10:08:28;;;;;;;4.95;3.92;;;;;;;20.60;100.00;99826.34;5092159;28;20042;-77
2023/04/21 10:10:54;;;;;;;6.35;4.15;;;;;;;21.52;100.00;99815.13;5091684;28;20032;-76
2023/04/21 10:13:21;;;;;;;5.75;3.97;;;;;;;21.94;100.00;99784.34;5092295;28;20085;-75
2023/04/21 10:15:46;;;;;;;5.80;3.75;;;;;;;20.71;100.00;99765.19;5093281;28;20402;-75
2023/04/21 10:18:20;;;;;;;4.72;3.58;;;;;;;20.62;100.00;99742.59;5092899;28;20032;-77
2023/04/21 10:21:00;;;;;;;5.90;3.85;;;;;;;19.76;100.00;99910.50;5093976;28;20024;-76
2023/04/21 10:23:28;;;;;;;4.68;3.35;;;;;;;20.86;100.00;100219.94;5093657;28;20039;-75
2023/04/21 10:26:01;;;;;;;8.05;4.03;;;;;;;20.58;100.00;100220.94;5092656;28;20101;-76
2023/04/21 10:28:39;;;;;;;6.20;3.67;;;;;;;21.16;100.00;100420.47;5093346;28;20069;-78
2023/04/21 10:31:28;;;;;;;10.07;5.22;;;;;;;20.26;100.00;100561.34;5092094;28;20040;-75
2023/04/21 10:34:14;;;;;;;6.18;3.75;;;;;;;21.75;100.00;100771.22;5092297;28;20040;-76
2023/04/21 10:36:45;;;;;;;7.43;4.50;;;;;;;21.31;100.00;100815.31;5091663;28;20040;-76
2023/04/21 10:39:23;;;;;;;;;;;;;;;22.14;100.00;100346.53;5092547;28;20032;-76
2023/04/21 10:41:50;;;;;;;6.55;3.95;;;;;;;22.10;100.00;99619.03;5126302;27;20313;-75
2023/04/21 10:44:16;;;;;;;5.82;3.75;;;;;;;22.00;100.00;99688.06;5093174;28;20024;-75
2023/04/21 10:46:52;;;;;;;8.05;4.18;;;;;;;22.15;100.00;99930.28;5091902;28;20032;-75
2023/04/21 10:49:31;;;;;;;6.18;4.15;;;;;;;21.88;100.00;100225.81;5091463;28;20039;-75
2023/04/21 10:51:56;;;;;;;7.25;4.15;;;;;;;21.83;100.00;100193.41;5091541;28;20127;-75
2023/04/21 10:54:22;;;;;;;4.13;3.72;;;;;;;21.63;100.00;100310.41;5091791;28;20481;-75
2023/04/21 10:56:50;;;;;;;6.18;4.00;;;;;;;21.21;100.00;99996.84;5092680;28;20499;-75
2023/04/21 10:59:17;;;;;;;5.95;4.00;;;;;;;21.52;100.00;100393.94;5091733;28;20020;-74
2023/04/21 11:01:45;;;;;;;10.07;4.28;;;;;;;21.79;100.00;100606.19;5091104;28;20059;-74
2023/04/21 11:04:18;;;;;;;5.45;3.75;;;;;;;22.02;100.00;100935.38;5092055;28;20047;-74
2023/04/21 11:07:07;;;;;;;6.30;3.30;;;;;;;21.34;100.00;100778.09;5092074;28;20039;-75